createdAt,value
2023-03-24T00:02:03.273Z,15.85
2023-03-24T00:04:36.550Z,15.87
2023-03-24T00:07:09.677Z,15.87
2023-03-24T00:09:43.032Z,15.91
2023-03-24T00:12:18.686Z,15.91
2023-03-24T00:14:54.505Z,15.93
2023-03-24T00:17:29.288Z,15.97
2023-03-24T00:20:02.023Z,15.99
2023-03-24T00:22:34.800Z,16.00
2023-03-24T00:25:07.757Z,16.03
2023-03-24T00:27:41.968Z,16.07
2023-03-24T00:30:14.736Z,16.09
2023-03-24T00:32:47.799Z,16.12
2023-03-24T00:35:20.988Z,16.14
2023-03-24T00:37:53.812Z,16.15
2023-03-24T00:40:27.871Z,16.19
2023-03-24T00:43:02.120Z,16.16
2023-03-24T00:45:34.843Z,16.15
2023-03-24T00:48:07.644Z,16.11
2023-03-24T00:50:41.920Z,16.09
2023-03-24T00:53:16.135Z,16.05
2023-03-24T00:55:50.060Z,16.01
2023-03-24T00:58:24.261Z,15.96
2023-03-24T01:00:58.867Z,15.91
2023-03-24T01:03:34.421Z,15.88
2023-03-24T01:06:07.512Z,15.84
2023-03-24T01:08:40.356Z,15.80
2023-03-24T01:11:13.182Z,15.77
2023-03-24T01:13:47.393Z,15.73
2023-03-24T01:16:20.103Z,15.69
2023-03-24T01:18:53.091Z,15.65
2023-03-24T01:21:26.159Z,15.63
2023-03-24T01:23:59.077Z,15.60
2023-03-24T01:26:32.164Z,15.56
2023-03-24T01:29:06.773Z,15.56
2023-03-24T01:31:39.538Z,15.54
2023-03-24T01:34:12.308Z,15.53
2023-03-24T01:36:45.024Z,15.50
2023-03-24T01:39:17.801Z,15.50
2023-03-24T01:41:50.631Z,15.51
2023-03-24T01:44:29.726Z,15.51
2023-03-24T01:47:02.857Z,15.52
2023-03-24T01:49:38.146Z,15.51
2023-03-24T01:52:13.514Z,15.53
2023-03-24T01:54:48.537Z,15.53
2023-03-24T01:57:23.015Z,15.55
2023-03-24T01:59:58.881Z,15.57
2023-03-24T02:02:35.930Z,15.58
2023-03-24T02:05:10.477Z,15.59
2023-03-24T02:07:48.691Z,15.57
2023-03-24T02:10:21.977Z,15.58
2023-03-24T02:12:54.663Z,15.60
2023-03-24T02:15:30.066Z,15.61
2023-03-24T02:18:08.135Z,15.61
2023-03-24T02:20:50.922Z,15.61
2023-03-24T02:23:34.575Z,15.61
2023-03-24T02:26:31.915Z,15.62
2023-03-24T02:29:13.163Z,15.63
2023-03-24T02:32:06.288Z,15.62
2023-03-24T02:34:51.690Z,15.61
2023-03-24T02:37:44.095Z,15.61
2023-03-24T02:40:24.142Z,15.61
2023-03-24T02:43:13.246Z,15.62
2023-03-24T02:45:51.203Z,15.62
2023-03-24T02:48:30.444Z,15.60
2023-03-24T02:51:06.423Z,15.63
2023-03-24T02:53:44.519Z,15.61
2023-03-24T02:56:23.409Z,15.62
2023-03-24T02:59:00.564Z,15.63
2023-03-24T03:01:36.051Z,15.64
2023-03-24T03:04:10.406Z,15.63
2023-03-24T03:06:45.512Z,15.65
2023-03-24T03:09:19.213Z,15.66
2023-03-24T03:11:55.652Z,15.68
2023-03-24T03:14:32.325Z,15.68
2023-03-24T03:17:06.834Z,15.68
2023-03-24T03:19:41.435Z,15.70
2023-03-24T03:22:16.627Z,15.70
2023-03-24T03:24:53.109Z,15.69
2023-03-24T03:27:31.405Z,15.69
2023-03-24T03:30:06.248Z,15.69
2023-03-24T03:32:43.036Z,15.68
2023-03-24T03:35:18.470Z,15.68
2023-03-24T03:37:54.930Z,15.65
2023-03-24T03:40:32.466Z,15.65
2023-03-24T03:43:06.886Z,15.63
2023-03-24T03:45:39.676Z,15.62
2023-03-24T03:48:12.507Z,15.62
2023-03-24T03:50:45.406Z,15.60
2023-03-24T03:53:20.366Z,15.59
2023-03-24T03:55:53.790Z,15.57
2023-03-24T03:58:28.950Z,15.57
2023-03-24T04:01:01.860Z,15.56
2023-03-24T04:03:45.371Z,15.54
2023-03-24T04:06:25.597Z,15.54
2023-03-24T04:09:04.619Z,15.51
2023-03-24T04:11:42.686Z,15.51
2023-03-24T04:14:34.832Z,15.49
2023-03-24T04:17:13.255Z,15.47
2023-03-24T04:19:55.869Z,15.46
2023-03-24T04:22:33.975Z,15.45
2023-03-24T04:25:14.325Z,15.43
2023-03-24T04:27:48.962Z,15.42
2023-03-24T04:30:25.659Z,15.40
2023-03-24T04:33:00.310Z,15.36
2023-03-24T04:35:35.155Z,15.35
2023-03-24T04:38:10.269Z,15.33
2023-03-24T04:40:44.027Z,15.32
2023-03-24T04:43:18.412Z,15.32
2023-03-24T04:45:53.001Z,15.32
2023-03-24T04:48:26.536Z,15.31
2023-03-24T04:51:00.768Z,15.32
2023-03-24T04:53:33.494Z,15.34
2023-03-24T04:56:11.110Z,15.36
2023-03-24T04:58:44.132Z,15.37
2023-03-24T05:01:21.472Z,15.39
2023-03-24T05:03:54.574Z,15.44
2023-03-24T05:06:27.609Z,15.47
2023-03-24T05:09:00.732Z,15.50
2023-03-24T05:11:33.397Z,15.55
2023-03-24T05:14:06.111Z,15.61
2023-03-24T05:16:40.242Z,15.63
2023-03-24T05:19:13.026Z,15.69
2023-03-24T05:21:45.733Z,15.72
2023-03-24T05:24:20.620Z,15.75
2023-03-24T05:26:53.395Z,15.79
2023-03-24T05:29:26.427Z,15.81
2023-03-24T05:32:00.561Z,15.84
2023-03-24T05:34:33.404Z,15.88
2023-03-24T05:37:06.804Z,15.88
2023-03-24T05:39:39.585Z,15.92
2023-03-24T05:42:12.298Z,15.92
2023-03-24T05:44:45.875Z,15.93
2023-03-24T05:47:20.283Z,15.94
2023-03-24T05:49:53.050Z,15.95
2023-03-24T05:52:27.424Z,15.97
2023-03-24T05:55:01.607Z,15.97
2023-03-24T05:57:34.742Z,15.97
2023-03-24T06:00:10.661Z,15.98
2023-03-24T06:02:45.263Z,16.00
2023-03-24T06:05:18.056Z,15.99
2023-03-24T06:07:50.806Z,16.00
2023-03-24T06:10:26.556Z,16.02
2023-03-24T06:12:59.242Z,16.03
2023-03-24T06:15:32.025Z,16.03
2023-03-24T06:18:06.983Z,16.07
2023-03-24T06:20:41.429Z,16.06
2023-03-24T06:23:15.439Z,16.09
2023-03-24T06:25:51.003Z,16.08
2023-03-24T06:28:26.289Z,16.09
2023-03-24T06:30:59.498Z,16.10
2023-03-24T06:33:34.596Z,16.10
2023-03-24T06:36:08.121Z,16.11
2023-03-24T06:38:41.985Z,16.13
2023-03-24T06:41:14.629Z,16.13
2023-03-24T06:43:47.348Z,16.14
2023-03-24T06:46:20.428Z,16.15
2023-03-24T06:48:54.734Z,16.17
2023-03-24T06:51:27.411Z,16.19
2023-03-24T06:54:00.114Z,16.18
2023-03-24T06:56:32.769Z,16.21
2023-03-24T06:59:05.612Z,16.23
2023-03-24T07:01:38.832Z,16.25
2023-03-24T07:04:12.912Z,16.26
2023-03-24T07:06:56.657Z,16.29
2023-03-24T07:09:38.668Z,16.30
2023-03-24T07:12:13.984Z,16.33
2023-03-24T07:14:47.487Z,16.34
2023-03-24T07:17:20.545Z,16.36
2023-03-24T07:19:54.569Z,16.39
2023-03-24T07:22:27.249Z,16.40
2023-03-24T07:25:04.497Z,16.41
2023-03-24T07:27:39.406Z,16.42
2023-03-24T07:30:13.514Z,16.45
2023-03-24T07:32:46.260Z,16.46
2023-03-24T07:35:20.811Z,16.48
2023-03-24T07:37:53.576Z,16.49
2023-03-24T07:40:26.283Z,16.52
2023-03-24T07:43:01.307Z,16.54
2023-03-24T07:45:34.302Z,16.54
2023-03-24T07:48:07.331Z,16.58
2023-03-24T07:50:41.584Z,16.56
2023-03-24T07:53:18.621Z,16.58
2023-03-24T07:55:51.985Z,16.59
2023-03-24T07:58:25.076Z,16.63
2023-03-24T08:00:57.795Z,16.63
2023-03-24T08:03:31.914Z,16.66
2023-03-24T08:06:07.095Z,16.66
2023-03-24T08:08:39.890Z,16.68
2023-03-24T08:11:12.541Z,16.69
2023-03-24T08:13:45.213Z,16.72
2023-03-24T08:16:17.949Z,16.77
2023-03-24T08:18:50.889Z,16.81
2023-03-24T08:21:25.430Z,16.86
2023-03-24T08:23:58.237Z,16.90
2023-03-24T08:26:31.148Z,16.97
2023-03-24T08:29:04.060Z,17.03
2023-03-24T08:31:37.904Z,17.09
2023-03-24T08:34:11.706Z,17.14
2023-03-24T08:36:45.851Z,17.20
2023-03-24T08:39:18.600Z,17.26
2023-03-24T08:41:51.695Z,17.30
2023-03-24T08:44:24.800Z,17.33
2023-03-24T08:46:57.606Z,17.37
2023-03-24T08:49:30.753Z,17.39
2023-03-24T08:52:05.654Z,17.40
2023-03-24T08:54:38.515Z,17.43
2023-03-24T08:57:11.618Z,17.45
2023-03-24T08:59:44.734Z,17.47
2023-03-24T09:02:17.730Z,17.51
2023-03-24T09:04:54.187Z,17.54
2023-03-24T09:07:28.416Z,17.59
2023-03-24T09:10:01.151Z,17.63
2023-03-24T09:12:34.821Z,17.67
2023-03-24T09:15:10.103Z,17.72
2023-03-24T09:17:44.480Z,17.79
2023-03-24T09:20:18.732Z,17.81
2023-03-24T09:22:52.790Z,17.86
2023-03-24T09:25:25.457Z,17.93
2023-03-24T09:27:58.119Z,18.01
2023-03-24T09:30:33.332Z,18.10
2023-03-24T09:33:07.746Z,18.21
2023-03-24T09:35:41.162Z,18.34
2023-03-24T09:38:15.219Z,18.44
2023-03-24T09:40:50.374Z,18.53
2023-03-24T09:43:27.376Z,18.62
2023-03-24T09:46:02.032Z,18.68
2023-03-24T09:48:37.002Z,18.70
2023-03-24T09:51:11.901Z,18.73
2023-03-24T09:53:50.635Z,18.73
2023-03-24T09:56:24.247Z,18.73
2023-03-24T09:59:02.829Z,18.71
2023-03-24T10:01:36.556Z,18.68
2023-03-24T10:04:14.846Z,18.67
2023-03-24T10:06:53.045Z,18.64
2023-03-24T10:09:28.893Z,18.60
2023-03-24T10:12:12.289Z,18.58
2023-03-24T10:14:57.050Z,18.54
2023-03-24T10:17:36.610Z,18.47
2023-03-24T10:20:16.899Z,18.43
2023-03-24T10:22:55.090Z,18.37
2023-03-24T10:25:37.374Z,18.33
2023-03-24T10:28:15.931Z,18.26
2023-03-24T10:30:49.541Z,18.20
2023-03-24T10:33:22.712Z,18.16
2023-03-24T10:35:58.821Z,18.12
2023-03-24T10:38:31.706Z,18.12
2023-03-24T10:41:06.174Z,18.14
2023-03-24T10:43:39.936Z,18.18
2023-03-24T10:46:15.704Z,18.24
2023-03-24T10:48:49.846Z,18.32
2023-03-24T10:51:24.638Z,18.43
2023-03-24T10:54:11.893Z,18.55
2023-03-24T10:56:47.127Z,18.68
2023-03-24T10:59:22.733Z,18.79
2023-03-24T11:02:12.606Z,18.89
2023-03-24T11:04:48.614Z,18.96
2023-03-24T11:07:22.708Z,19.00
2023-03-24T11:09:59.289Z,19.02
2023-03-24T11:12:34.338Z,19.02
2023-03-24T11:15:21.099Z,19.02
2023-03-24T11:17:57.262Z,19.02
2023-03-24T11:20:32.796Z,18.98
2023-03-24T11:23:07.588Z,18.95
2023-03-24T11:25:42.088Z,18.92
2023-03-24T11:28:18.748Z,18.87
2023-03-24T11:30:52.926Z,18.81
2023-03-24T11:33:35.227Z,18.74
2023-03-24T11:36:30.736Z,18.67
2023-03-24T11:39:05.531Z,18.56
2023-03-24T11:41:39.567Z,18.46
2023-03-24T11:44:20.095Z,18.39
2023-03-24T11:46:56.216Z,18.34
2023-03-24T11:49:31.971Z,18.28
2023-03-24T11:52:08.838Z,18.21
2023-03-24T11:54:41.633Z,18.17
2023-03-24T11:57:17.724Z,18.16
2023-03-24T11:59:58.050Z,18.18
2023-03-24T12:02:43.416Z,18.22
2023-03-24T12:05:25.347Z,18.29
2023-03-24T12:08:04.214Z,18.36
2023-03-24T12:10:51.060Z,18.42
2023-03-24T12:13:33.301Z,18.47
2023-03-24T12:16:13.563Z,18.47
2023-03-24T12:18:55.109Z,18.40
2023-03-24T12:21:38.151Z,18.34
2023-03-24T12:24:18.705Z,18.25
2023-03-24T12:26:53.952Z,18.13
2023-03-24T12:29:34.205Z,18.01
2023-03-24T12:32:21.760Z,17.86
2023-03-24T12:35:07.364Z,17.73
2023-03-24T12:37:46.120Z,17.60
2023-03-24T12:40:36.242Z,17.48
2023-03-24T12:43:15.597Z,17.39
2023-03-24T12:45:52.731Z,17.29
2023-03-24T12:48:45.380Z,17.18
2023-03-24T12:51:25.562Z,17.06
2023-03-24T12:54:07.108Z,16.95
2023-03-24T12:56:42.626Z,16.87
2023-03-24T12:59:19.485Z,16.78
2023-03-24T13:01:53.762Z,16.72
2023-03-24T13:04:27.858Z,16.65
2023-03-24T13:07:06.551Z,16.58
2023-03-24T13:09:46.293Z,16.55
2023-03-24T13:12:21.370Z,16.52
2023-03-24T13:14:58.977Z,16.49
2023-03-24T13:17:34.642Z,16.45
2023-03-24T13:20:11.027Z,16.44
2023-03-24T13:22:46.524Z,16.42
2023-03-24T13:25:24.318Z,16.42
2023-03-24T13:27:59.578Z,16.41
2023-03-24T13:30:34.475Z,16.41
2023-03-24T13:33:12.013Z,16.41
2023-03-24T13:36:09.049Z,16.41
2023-03-24T13:38:46.167Z,16.38
2023-03-24T13:41:20.784Z,16.38
2023-03-24T13:43:59.305Z,16.35
2023-03-24T13:46:32.162Z,16.35
2023-03-24T13:49:07.760Z,16.33
2023-03-24T13:51:44.871Z,16.31
2023-03-24T13:54:20.868Z,16.29
2023-03-24T13:56:54.576Z,16.28
2023-03-24T13:59:28.665Z,16.25
2023-03-24T14:02:21.938Z,16.22
2023-03-24T14:05:05.930Z,16.21
2023-03-24T14:07:46.446Z,16.18
2023-03-24T14:10:34.060Z,16.15
2023-03-24T14:13:20.183Z,16.15
2023-03-24T14:15:54.168Z,16.12
2023-03-24T14:18:43.191Z,16.10
2023-03-24T14:21:16.203Z,16.08
2023-03-24T14:23:52.109Z,16.06
2023-03-24T14:26:31.030Z,16.03
2023-03-24T14:29:07.226Z,15.99
2023-03-24T14:31:40.057Z,15.99
2023-03-24T14:34:16.593Z,15.99
2023-03-24T14:36:59.984Z,15.97
2023-03-24T14:39:35.791Z,15.95
2023-03-24T14:42:26.995Z,15.98
2023-03-24T14:45:01.920Z,15.96
2023-03-24T14:47:36.039Z,15.96
2023-03-24T14:50:13.951Z,15.95
2023-03-24T14:52:51.193Z,15.96
2023-03-24T14:55:24.112Z,15.92
2023-03-24T14:57:57.794Z,15.93
2023-03-24T15:00:33.765Z,15.90
2023-03-24T15:03:17.975Z,15.93
2023-03-24T15:05:51.060Z,15.90
2023-03-24T15:08:24.286Z,15.90
2023-03-24T15:10:58.765Z,15.88
2023-03-24T15:13:36.197Z,15.87
2023-03-24T15:16:18.599Z,15.86
2023-03-24T15:19:00.772Z,15.84
2023-03-24T15:21:37.078Z,15.82
2023-03-24T15:24:26.862Z,15.80
2023-03-24T15:27:15.944Z,15.77
2023-03-24T15:29:54.223Z,15.75
2023-03-24T15:32:32.226Z,15.73
2023-03-24T15:35:06.663Z,15.71
2023-03-24T15:37:41.638Z,15.68
2023-03-24T15:40:30.584Z,15.65
2023-03-24T15:43:04.885Z,15.65
2023-03-24T15:45:39.596Z,15.60
2023-03-24T15:48:15.861Z,15.54
2023-03-24T15:50:59.728Z,15.49
2023-03-24T15:53:41.804Z,15.38
2023-03-24T15:56:18.848Z,15.29
2023-03-24T15:58:53.253Z,15.19
2023-03-24T16:01:31.686Z,15.05
2023-03-24T16:04:07.535Z,14.93
2023-03-24T16:06:43.110Z,14.80
2023-03-24T16:09:16.818Z,14.66
2023-03-24T16:11:50.257Z,14.55
2023-03-24T16:14:24.513Z,14.43
2023-03-24T16:16:57.979Z,14.30
2023-03-24T16:19:32.910Z,14.20
2023-03-24T16:22:10.522Z,14.12
2023-03-24T16:24:43.576Z,14.03
2023-03-24T16:27:16.845Z,13.98
2023-03-24T16:29:50.180Z,13.97
2023-03-24T16:32:23.123Z,13.93
2023-03-24T16:34:57.352Z,13.90
2023-03-24T16:37:30.250Z,13.89
2023-03-24T16:40:03.869Z,13.88
2023-03-24T16:42:37.264Z,13.89
2023-03-24T16:45:10.854Z,13.90
2023-03-24T16:47:43.705Z,13.89
2023-03-24T16:50:27.451Z,13.91
2023-03-24T16:53:01.321Z,13.91
2023-03-24T16:55:34.454Z,13.88
2023-03-24T16:58:07.398Z,13.86
2023-03-24T17:00:40.574Z,13.85
2023-03-24T17:03:14.319Z,13.79
2023-03-24T17:05:49.600Z,13.76
2023-03-24T17:08:22.350Z,13.70
2023-03-24T17:10:55.441Z,13.66
2023-03-24T17:13:28.276Z,13.62
2023-03-24T17:16:01.564Z,13.55
2023-03-24T17:18:34.281Z,13.54
2023-03-24T17:21:12.877Z,13.50
2023-03-24T17:23:47.195Z,13.51
2023-03-24T17:26:19.965Z,13.48
2023-03-24T17:28:52.703Z,13.49
2023-03-24T17:31:25.456Z,13.49
2023-03-24T17:34:00.331Z,13.51
2023-03-24T17:36:38.315Z,13.50
2023-03-24T17:39:13.751Z,13.54
2023-03-24T17:41:46.950Z,13.55
2023-03-24T17:44:20.190Z,13.56
2023-03-24T17:46:53.309Z,13.57
2023-03-24T17:49:26.595Z,13.57
2023-03-24T17:52:00.806Z,13.62
2023-03-24T17:54:33.614Z,13.62
2023-03-24T17:57:06.612Z,13.61
2023-03-24T17:59:39.402Z,13.60
2023-03-24T18:02:13.879Z,13.60
2023-03-24T18:04:47.702Z,13.61
2023-03-24T18:07:23.086Z,13.60
2023-03-24T18:09:55.827Z,13.59
2023-03-24T18:12:28.926Z,13.57
2023-03-24T18:15:01.731Z,13.57
2023-03-24T18:17:34.646Z,13.55
2023-03-24T18:20:10.263Z,13.53
2023-03-24T18:22:44.870Z,13.50
2023-03-24T18:25:17.688Z,13.49
2023-03-24T18:27:50.756Z,13.47
2023-03-24T18:30:23.729Z,13.43
2023-03-24T18:32:56.818Z,13.41
2023-03-24T18:35:29.717Z,13.37
2023-03-24T18:38:03.783Z,13.35
2023-03-24T18:40:36.540Z,13.28
2023-03-24T18:43:09.321Z,13.23
2023-03-24T18:45:42.139Z,13.18
2023-03-24T18:48:15.838Z,13.12
2023-03-24T18:50:51.779Z,13.06
2023-03-24T18:53:26.070Z,13.00
2023-03-24T18:55:58.869Z,12.96
2023-03-24T18:58:32.056Z,12.91
2023-03-24T19:01:07.307Z,12.88
2023-03-24T19:03:41.954Z,12.84
2023-03-24T19:06:15.682Z,12.78
2023-03-24T19:08:54.409Z,12.74
2023-03-24T19:11:27.535Z,12.70
2023-03-24T19:14:00.694Z,12.63
2023-03-24T19:16:33.658Z,12.56
2023-03-24T19:19:06.969Z,12.48
2023-03-24T19:21:40.455Z,12.39
2023-03-24T19:24:15.149Z,12.33
2023-03-24T19:26:48.341Z,12.21
2023-03-24T19:29:21.556Z,12.15
2023-03-24T19:31:54.287Z,12.05
2023-03-24T19:34:27.483Z,11.97
2023-03-24T19:37:00.286Z,11.90
2023-03-24T19:39:34.491Z,11.82
2023-03-24T19:42:07.897Z,11.75
2023-03-24T19:44:41.010Z,11.68
2023-03-24T19:47:13.725Z,11.63
2023-03-24T19:49:46.958Z,11.56
2023-03-24T19:52:19.818Z,11.50
2023-03-24T19:54:54.135Z,11.45
2023-03-24T19:57:30.418Z,11.40
2023-03-24T20:00:03.988Z,11.32
2023-03-24T20:02:37.495Z,11.28
2023-03-24T20:05:11.130Z,11.22
2023-03-24T20:07:44.179Z,11.18
2023-03-24T20:10:21.181Z,11.11
2023-03-24T20:12:54.414Z,11.07
2023-03-24T20:15:27.348Z,11.03
2023-03-24T20:18:00.298Z,10.98
2023-03-24T20:20:33.130Z,10.92
2023-03-24T20:23:06.634Z,10.90
2023-03-24T20:25:43.310Z,10.84
2023-03-24T20:28:17.238Z,10.82
2023-03-24T20:30:51.813Z,10.78
2023-03-24T20:33:24.612Z,10.76
2023-03-24T20:35:57.801Z,10.73
2023-03-24T20:38:31.153Z,10.71
2023-03-24T20:41:07.162Z,10.69
2023-03-24T20:43:40.343Z,10.67
2023-03-24T20:46:14.967Z,10.64
2023-03-24T20:48:47.705Z,10.63
2023-03-24T20:51:20.744Z,10.61
2023-03-24T20:53:53.827Z,10.60
2023-03-24T20:56:28.380Z,10.59
2023-03-24T20:59:02.674Z,10.59
2023-03-24T21:01:37.007Z,10.58
2023-03-24T21:04:10.622Z,10.59
2023-03-24T21:06:43.804Z,10.60
2023-03-24T21:09:17.074Z,10.63
2023-03-24T21:11:51.639Z,10.67
2023-03-24T21:14:25.081Z,10.72
2023-03-24T21:16:58.151Z,10.77
2023-03-24T21:19:30.985Z,10.81
2023-03-24T21:22:03.781Z,10.83
2023-03-24T21:24:36.600Z,10.85
2023-03-24T21:27:10.837Z,10.84
2023-03-24T21:29:43.647Z,10.84
2023-03-24T21:32:16.391Z,10.85
2023-03-24T21:34:49.212Z,10.83
2023-03-24T21:37:25.712Z,10.81
2023-03-24T21:39:58.643Z,10.77
2023-03-24T21:42:34.995Z,10.75
2023-03-24T21:45:08.243Z,10.74
2023-03-24T21:47:41.026Z,10.72
2023-03-24T21:50:14.361Z,10.71
2023-03-24T21:52:48.024Z,10.70
2023-03-24T21:55:21.841Z,10.69
2023-03-24T21:57:56.723Z,10.67
2023-03-24T22:00:30.676Z,10.67
2023-03-24T22:03:03.907Z,10.64
2023-03-24T22:05:39.031Z,10.62
2023-03-24T22:08:12.299Z,10.61
2023-03-24T22:10:45.978Z,10.60
2023-03-24T22:13:20.558Z,10.60
2023-03-24T22:15:54.922Z,10.58
2023-03-24T22:18:28.383Z,10.59
2023-03-24T22:21:03.249Z,10.58
2023-03-24T22:23:38.078Z,10.59
2023-03-24T22:26:11.941Z,10.59
2023-03-24T22:28:46.543Z,10.62
2023-03-24T22:31:23.039Z,10.63
2023-03-24T22:33:56.352Z,10.67
2023-03-24T22:36:29.146Z,10.72
2023-03-24T22:39:02.189Z,10.76
2023-03-24T22:41:34.929Z,10.84
2023-03-24T22:44:09.121Z,10.91
2023-03-24T22:46:41.865Z,11.01
2023-03-24T22:49:14.726Z,11.08
2023-03-24T22:51:47.471Z,11.16
2023-03-24T22:54:20.339Z,11.23
2023-03-24T22:56:53.509Z,11.33
2023-03-24T22:59:31.117Z,11.43
2023-03-24T23:02:09.977Z,11.52
2023-03-24T23:04:45.035Z,11.61
2023-03-24T23:07:17.776Z,11.69
2023-03-24T23:09:51.010Z,11.76
2023-03-24T23:12:25.100Z,11.83
2023-03-24T23:14:59.345Z,11.87
2023-03-24T23:17:32.398Z,11.87
2023-03-24T23:20:07.578Z,11.89
2023-03-24T23:22:41.102Z,11.90
2023-03-24T23:25:14.058Z,11.89
2023-03-24T23:27:47.590Z,11.87
2023-03-24T23:30:21.800Z,11.87
2023-03-24T23:32:54.870Z,11.86
2023-03-24T23:35:27.954Z,11.86
2023-03-24T23:38:02.369Z,11.85
2023-03-24T23:40:35.194Z,11.84
2023-03-24T23:43:08.244Z,11.85
2023-03-24T23:45:42.734Z,11.85
2023-03-24T23:48:15.742Z,11.81
2023-03-24T23:50:56.008Z,11.77
2023-03-24T23:53:29.529Z,11.69
2023-03-24T23:56:06.851Z,11.62
2023-03-24T23:58:41.348Z,11.53
